createdAt,value
2023-04-30T00:00:51.291Z,13.53
2023-04-30T00:02:23.122Z,10.57
2023-04-30T00:03:54.987Z,8.70
2023-04-30T00:05:26.744Z,9.97
2023-04-30T00:06:58.396Z,8.67
2023-04-30T00:08:30.178Z,8.03
2023-04-30T00:10:02.214Z,7.97
2023-04-30T00:11:33.886Z,10.10
2023-04-30T00:13:05.855Z,12.47
2023-04-30T00:14:37.551Z,10.10
2023-04-30T00:16:09.287Z,9.90
2023-04-30T00:17:40.979Z,7.87
2023-04-30T00:19:12.703Z,9.83
2023-04-30T00:20:44.354Z,8.93
2023-04-30T00:22:16.016Z,12.40
2023-04-30T00:23:47.763Z,8.50
2023-04-30T00:25:20.903Z,11.20
2023-04-30T00:26:52.596Z,9.60
2023-04-30T00:28:24.260Z,13.20
2023-04-30T00:29:56.180Z,10.70
2023-04-30T00:31:28.289Z,12.87
2023-04-30T00:33:00.273Z,9.17
2023-04-30T00:34:32.320Z,8.73
2023-04-30T00:36:04.404Z,9.30
2023-04-30T00:37:36.082Z,8.47
2023-04-30T00:39:07.891Z,8.57
2023-04-30T00:40:42.139Z,10.17
2023-04-30T00:42:13.805Z,8.23
2023-04-30T00:43:47.053Z,9.73
2023-04-30T00:45:22.008Z,10.77
2023-04-30T00:46:53.677Z,13.73
2023-04-30T00:48:26.227Z,11.57
2023-04-30T00:49:58.789Z,10.80
2023-04-30T00:51:32.532Z,14.30
2023-04-30T00:53:04.528Z,12.23
2023-04-30T00:54:36.756Z,20.73
2023-04-30T00:56:09.738Z,9.30
2023-04-30T00:57:41.621Z,14.00
2023-04-30T00:59:14.073Z,9.67
2023-04-30T01:00:47.072Z,13.17
2023-04-30T01:02:19.716Z,9.97
2023-04-30T01:03:52.368Z,13.60
2023-04-30T01:05:24.263Z,10.03
2023-04-30T01:06:56.674Z,11.97
2023-04-30T01:08:29.375Z,13.87
2023-04-30T01:10:01.657Z,9.57
2023-04-30T01:11:49.831Z,9.63
2023-04-30T01:13:50.566Z,16.40
2023-04-30T01:15:32.701Z,10.90
2023-04-30T01:17:21.188Z,10.50
2023-04-30T01:19:00.412Z,12.00
2023-04-30T01:20:33.233Z,10.03
2023-04-30T01:22:09.296Z,11.37
2023-04-30T01:23:53.256Z,11.10
2023-04-30T01:25:43.996Z,10.07
2023-04-30T01:27:50.799Z,9.50
2023-04-30T01:29:24.946Z,11.73
2023-04-30T01:30:56.722Z,11.00
2023-04-30T01:32:28.421Z,11.80
2023-04-30T01:34:00.168Z,11.10
2023-04-30T01:35:53.096Z,11.07
2023-04-30T01:37:31.711Z,10.07
2023-04-30T01:39:07.161Z,10.60
2023-04-30T01:40:50.206Z,11.00
2023-04-30T01:42:59.754Z,9.13
2023-04-30T01:44:49.136Z,11.87
2023-04-30T01:46:30.135Z,9.03
2023-04-30T01:48:34.055Z,11.63
2023-04-30T01:50:08.512Z,10.53
2023-04-30T01:51:41.813Z,11.60
2023-04-30T01:53:20.741Z,9.43
2023-04-30T01:55:08.300Z,10.10
2023-04-30T01:56:45.681Z,11.90
2023-04-30T01:58:20.309Z,10.97
2023-04-30T01:59:53.112Z,10.87
2023-04-30T02:01:30.750Z,11.47
2023-04-30T02:03:02.899Z,11.20
2023-04-30T02:04:36.223Z,11.27
2023-04-30T02:06:08.851Z,12.07
2023-04-30T02:07:44.639Z,11.73
2023-04-30T02:09:16.339Z,13.07
2023-04-30T02:10:48.028Z,10.00
2023-04-30T02:12:19.698Z,9.67
2023-04-30T02:13:51.649Z,11.47
2023-04-30T02:15:23.497Z,12.90
2023-04-30T02:16:55.240Z,10.90
2023-04-30T02:18:26.941Z,11.60
2023-04-30T02:19:59.571Z,11.77
2023-04-30T02:21:31.726Z,12.37
2023-04-30T02:23:03.393Z,11.97
2023-04-30T02:24:36.191Z,10.43
2023-04-30T02:26:08.650Z,11.67
2023-04-30T02:27:40.549Z,12.47
2023-04-30T02:29:12.225Z,16.77
2023-04-30T02:30:43.956Z,10.13
2023-04-30T02:32:15.956Z,10.47
2023-04-30T02:33:47.636Z,10.30
2023-04-30T02:35:19.273Z,12.90
2023-04-30T02:36:50.959Z,10.00
2023-04-30T02:38:22.632Z,12.40
2023-04-30T02:39:54.897Z,10.73
2023-04-30T02:41:26.836Z,10.37
2023-04-30T02:42:58.912Z,10.70
2023-04-30T02:44:30.565Z,12.63
2023-04-30T02:46:02.314Z,12.77
2023-04-30T02:47:34.094Z,13.50
2023-04-30T02:49:06.418Z,11.50
2023-04-30T02:50:38.112Z,12.90
2023-04-30T02:52:09.861Z,10.37
2023-04-30T02:53:41.671Z,14.47
2023-04-30T02:55:13.534Z,11.97
2023-04-30T02:56:46.079Z,15.67
2023-04-30T02:58:17.895Z,11.70
2023-04-30T02:59:49.640Z,10.73
2023-04-30T03:01:21.377Z,15.60
2023-04-30T03:02:53.608Z,14.67
2023-04-30T03:04:25.760Z,13.10
2023-04-30T03:05:59.360Z,12.63
2023-04-30T03:07:31.089Z,14.60
2023-04-30T03:09:02.739Z,15.70
2023-04-30T03:10:34.399Z,11.80
2023-04-30T03:12:06.208Z,15.07
2023-04-30T03:13:38.043Z,13.23
2023-04-30T03:15:10.590Z,14.00
2023-04-30T03:16:42.371Z,12.60
2023-04-30T03:18:14.202Z,15.53
2023-04-30T03:19:45.908Z,15.63
2023-04-30T03:21:17.625Z,13.10
2023-04-30T03:22:49.238Z,14.70
2023-04-30T03:24:20.950Z,12.07
2023-04-30T03:25:52.616Z,13.70
2023-04-30T03:27:24.753Z,13.33
2023-04-30T03:28:56.416Z,16.97
2023-04-30T03:30:28.731Z,13.20
2023-04-30T03:32:00.397Z,12.33
2023-04-30T03:33:33.068Z,11.83
2023-04-30T03:35:05.678Z,12.03
2023-04-30T03:36:37.818Z,13.80
2023-04-30T03:38:09.571Z,12.63
2023-04-30T03:39:41.278Z,11.30
2023-04-30T03:41:12.963Z,13.77
2023-04-30T03:42:44.882Z,11.97
2023-04-30T03:44:16.627Z,13.33
2023-04-30T03:45:48.465Z,14.07
2023-04-30T03:47:20.664Z,11.87
2023-04-30T03:48:52.343Z,13.80
2023-04-30T03:50:24.080Z,11.73
2023-04-30T03:51:55.842Z,13.40
2023-04-30T03:53:27.894Z,12.77
2023-04-30T03:54:59.729Z,13.27
2023-04-30T03:56:31.564Z,10.27
2023-04-30T03:58:03.789Z,12.40
2023-04-30T03:59:35.466Z,9.47
2023-04-30T04:01:07.226Z,11.67
2023-04-30T04:02:39.441Z,14.43
2023-04-30T04:04:13.217Z,13.23
2023-04-30T04:05:45.671Z,11.63
2023-04-30T04:07:17.722Z,14.53
2023-04-30T04:08:50.012Z,13.00
2023-04-30T04:10:21.671Z,12.77
2023-04-30T04:11:53.296Z,14.70
2023-04-30T04:13:25.464Z,16.03
2023-04-30T04:14:57.108Z,10.30
2023-04-30T04:16:29.681Z,12.80
2023-04-30T04:18:01.567Z,13.57
2023-04-30T04:19:33.418Z,12.73
2023-04-30T04:21:05.502Z,12.73
2023-04-30T04:22:37.172Z,11.83
2023-04-30T04:24:09.497Z,14.40
2023-04-30T04:25:41.536Z,14.50
2023-04-30T04:27:13.488Z,12.47
2023-04-30T04:28:45.554Z,16.10
2023-04-30T04:30:17.251Z,14.33
2023-04-30T04:31:51.044Z,12.20
2023-04-30T04:33:22.814Z,14.23
2023-04-30T04:34:55.105Z,14.20
2023-04-30T04:36:28.343Z,17.57
2023-04-30T04:38:01.490Z,30.57
2023-04-30T04:39:34.317Z,25.70
2023-04-30T04:41:06.295Z,24.53
2023-04-30T04:42:38.698Z,15.23
2023-04-30T04:44:10.554Z,13.77
2023-04-30T04:45:42.798Z,14.10
2023-04-30T04:47:16.796Z,12.87
2023-04-30T04:48:49.342Z,13.93
2023-04-30T04:50:21.071Z,17.57
2023-04-30T04:51:53.044Z,16.10
2023-04-30T04:53:24.898Z,21.63
2023-04-30T04:54:56.692Z,22.77
2023-04-30T04:56:28.395Z,19.03
2023-04-30T04:58:02.199Z,12.27
2023-04-30T04:59:34.127Z,12.67
2023-04-30T05:01:06.063Z,12.60
2023-04-30T05:02:38.368Z,11.50
2023-04-30T05:04:13.960Z,13.17
2023-04-30T05:05:45.867Z,11.73
2023-04-30T05:07:18.142Z,10.17
2023-04-30T05:08:49.754Z,17.20
2023-04-30T05:10:21.736Z,9.80
2023-04-30T05:11:53.379Z,13.13
2023-04-30T05:13:25.003Z,13.50
2023-04-30T05:14:56.665Z,12.83
2023-04-30T05:16:28.530Z,14.83
2023-04-30T05:18:00.254Z,12.50
2023-04-30T05:19:32.545Z,12.37
2023-04-30T05:21:04.398Z,9.07
2023-04-30T05:22:36.076Z,10.87
2023-04-30T05:24:07.826Z,13.87
2023-04-30T05:25:39.510Z,14.63
2023-04-30T05:27:11.224Z,11.60
2023-04-30T05:28:42.956Z,13.27
2023-04-30T05:30:17.401Z,14.93
2023-04-30T05:31:49.154Z,13.90
2023-04-30T05:33:20.811Z,12.20
2023-04-30T05:34:52.483Z,15.07
2023-04-30T05:36:24.161Z,15.67
2023-04-30T05:37:55.933Z,17.00
2023-04-30T05:39:27.577Z,12.00
2023-04-30T05:41:00.309Z,14.80
2023-04-30T05:42:31.962Z,13.97
2023-04-30T05:44:04.896Z,12.20
2023-04-30T05:45:36.673Z,12.03
2023-04-30T05:47:08.444Z,10.90
2023-04-30T05:48:40.158Z,13.23
2023-04-30T05:50:11.954Z,15.17
2023-04-30T05:51:43.667Z,11.50
2023-04-30T05:53:15.548Z,16.10
2023-04-30T05:54:50.042Z,9.87
2023-04-30T05:56:21.942Z,14.10
2023-04-30T05:57:53.625Z,12.57
2023-04-30T05:59:25.883Z,10.97
2023-04-30T06:00:59.127Z,9.60
2023-04-30T06:02:30.935Z,11.87
2023-04-30T06:04:04.760Z,11.03
2023-04-30T06:05:36.630Z,11.13
2023-04-30T06:07:08.325Z,10.70
2023-04-30T06:08:44.452Z,12.40
2023-04-30T06:10:16.782Z,10.30
2023-04-30T06:11:50.414Z,14.20
2023-04-30T06:13:23.086Z,18.80
2023-04-30T06:14:54.901Z,25.40
2023-04-30T06:16:26.658Z,11.30
2023-04-30T06:17:58.903Z,15.57
2023-04-30T06:19:30.608Z,12.30
2023-04-30T06:21:02.317Z,9.10
2023-04-30T06:22:34.346Z,9.93
2023-04-30T06:24:06.584Z,14.97
2023-04-30T06:25:39.266Z,11.73
2023-04-30T06:27:10.985Z,11.57
2023-04-30T06:28:42.640Z,13.07
2023-04-30T06:30:14.338Z,11.13
2023-04-30T06:31:46.051Z,10.90
2023-04-30T06:33:17.894Z,11.37
2023-04-30T06:34:49.578Z,12.03
2023-04-30T06:36:21.204Z,9.17
2023-04-30T06:37:52.822Z,12.20
2023-04-30T06:39:25.150Z,12.60
2023-04-30T06:40:58.049Z,14.63
2023-04-30T06:42:35.714Z,10.97
2023-04-30T06:44:09.710Z,11.10
2023-04-30T06:45:42.991Z,12.17
2023-04-30T06:47:17.253Z,15.77
2023-04-30T06:48:49.542Z,11.90
2023-04-30T06:50:21.819Z,14.53
2023-04-30T06:51:54.322Z,17.00
2023-04-30T06:53:26.177Z,13.57
2023-04-30T06:54:57.830Z,13.60
2023-04-30T06:56:29.473Z,17.23
2023-04-30T06:58:01.165Z,14.13
2023-04-30T06:59:32.912Z,18.20
2023-04-30T07:01:04.602Z,13.67
2023-04-30T07:02:36.946Z,14.00
2023-04-30T07:04:08.779Z,13.30
2023-04-30T07:05:41.459Z,15.13
2023-04-30T07:07:13.120Z,14.27
2023-04-30T07:08:44.845Z,15.83
2023-04-30T07:10:17.101Z,14.53
2023-04-30T07:11:49.127Z,13.60
2023-04-30T07:13:20.769Z,18.10
2023-04-30T07:14:52.725Z,17.30
2023-04-30T07:16:25.912Z,11.30
2023-04-30T07:17:57.719Z,13.53
2023-04-30T07:19:29.368Z,13.60
2023-04-30T07:21:01.132Z,17.40
2023-04-30T07:22:32.840Z,11.93
2023-04-30T07:24:05.328Z,15.80
2023-04-30T07:25:36.988Z,14.77
2023-04-30T07:27:08.686Z,11.80
2023-04-30T07:28:40.353Z,12.10
2023-04-30T07:30:12.264Z,12.37
2023-04-30T07:31:44.274Z,18.93
2023-04-30T07:33:16.538Z,14.73
2023-04-30T07:34:48.544Z,15.20
2023-04-30T07:36:20.234Z,16.07
2023-04-30T07:37:51.907Z,12.90
2023-04-30T07:39:23.537Z,12.97
2023-04-30T07:40:55.255Z,20.17
2023-04-30T07:42:26.872Z,15.60
2023-04-30T07:43:59.672Z,12.33
2023-04-30T07:45:31.695Z,14.90
2023-04-30T07:47:03.553Z,13.67
2023-04-30T07:48:35.293Z,10.97
2023-04-30T07:50:07.438Z,9.17
2023-04-30T07:51:39.409Z,10.80
2023-04-30T07:53:11.437Z,11.40
2023-04-30T07:54:43.121Z,10.50
2023-04-30T07:56:14.787Z,11.70
2023-04-30T07:57:46.566Z,8.60
2023-04-30T07:59:18.713Z,8.57
2023-04-30T08:00:50.486Z,11.70
2023-04-30T08:02:22.307Z,10.63
2023-04-30T08:03:54.215Z,10.53
2023-04-30T08:05:27.032Z,11.53
2023-04-30T08:06:58.695Z,8.00
2023-04-30T08:08:30.309Z,8.87
2023-04-30T08:10:01.976Z,12.87
2023-04-30T08:11:33.647Z,8.60
2023-04-30T08:13:06.029Z,8.73
2023-04-30T08:14:37.771Z,18.30
2023-04-30T08:16:09.501Z,12.33
2023-04-30T08:17:41.241Z,14.80
2023-04-30T08:19:13.081Z,12.07
2023-04-30T08:20:44.793Z,10.90
2023-04-30T08:22:16.549Z,13.70
2023-04-30T08:23:48.426Z,12.03
2023-04-30T08:25:20.540Z,16.03
2023-04-30T08:26:53.446Z,9.30
2023-04-30T08:28:26.590Z,12.90
2023-04-30T08:29:58.495Z,11.03
2023-04-30T08:31:30.309Z,13.50
2023-04-30T08:33:02.381Z,10.23
2023-04-30T08:34:34.664Z,10.50
2023-04-30T08:36:06.514Z,11.00
2023-04-30T08:37:38.194Z,13.70
2023-04-30T08:39:09.845Z,13.37
2023-04-30T08:40:51.037Z,10.70
2023-04-30T08:42:29.867Z,20.50
2023-04-30T08:44:05.204Z,11.30
2023-04-30T08:45:38.720Z,16.93
2023-04-30T08:47:14.272Z,16.87
2023-04-30T08:48:48.174Z,11.67
2023-04-30T08:50:19.938Z,15.60
2023-04-30T08:51:52.400Z,11.30
2023-04-30T08:53:24.305Z,21.90
2023-04-30T08:54:58.692Z,11.97
2023-04-30T08:56:31.314Z,14.10
2023-04-30T08:58:05.356Z,10.83
2023-04-30T08:59:37.171Z,9.00
2023-04-30T09:01:10.097Z,13.23
2023-04-30T09:02:42.898Z,17.00
2023-04-30T09:04:14.777Z,10.07
2023-04-30T09:05:46.610Z,12.40
2023-04-30T09:07:18.780Z,10.07
2023-04-30T09:08:51.052Z,9.87
2023-04-30T09:10:23.159Z,8.03
2023-04-30T09:12:20.357Z,7.50
2023-04-30T09:13:57.400Z,8.30
2023-04-30T09:15:30.305Z,14.73
2023-04-30T09:17:02.232Z,9.90
2023-04-30T09:18:39.313Z,8.40
2023-04-30T09:20:12.629Z,7.67
2023-04-30T09:21:44.295Z,8.57
2023-04-30T09:23:15.965Z,8.00
2023-04-30T09:24:49.426Z,11.73
2023-04-30T09:26:28.101Z,8.00
2023-04-30T09:28:13.404Z,12.30
2023-04-30T09:29:46.177Z,9.40
2023-04-30T09:31:21.943Z,8.40
2023-04-30T09:32:57.033Z,7.00
2023-04-30T09:34:35.517Z,6.80
2023-04-30T09:36:11.085Z,7.87
2023-04-30T09:37:42.857Z,9.23
2023-04-30T09:39:17.347Z,6.23
2023-04-30T09:40:49.083Z,5.73
2023-04-30T09:42:21.129Z,9.50
2023-04-30T09:43:54.334Z,8.47
2023-04-30T09:45:26.488Z,9.77
2023-04-30T09:46:59.099Z,16.37
2023-04-30T09:48:31.983Z,15.30
2023-04-30T09:50:04.783Z,7.67
2023-04-30T09:51:54.102Z,12.67
2023-04-30T09:53:27.932Z,12.10
2023-04-30T09:54:59.688Z,11.33
2023-04-30T09:56:35.643Z,12.37
2023-04-30T09:58:07.701Z,7.30
2023-04-30T09:59:44.264Z,12.63
2023-04-30T10:01:17.670Z,8.90
2023-04-30T10:02:50.214Z,7.30
2023-04-30T10:04:22.085Z,8.07
2023-04-30T10:05:54.071Z,9.03
2023-04-30T10:07:32.112Z,8.80
2023-04-30T10:09:06.474Z,9.23
2023-04-30T10:10:40.515Z,6.33
2023-04-30T10:12:38.826Z,6.97
2023-04-30T10:14:17.821Z,9.00
2023-04-30T10:15:52.726Z,5.90
2023-04-30T10:17:29.017Z,8.27
2023-04-30T10:19:07.146Z,4.93
2023-04-30T10:20:39.904Z,6.33
2023-04-30T10:22:12.507Z,6.00
2023-04-30T10:23:44.755Z,4.40
2023-04-30T10:25:17.238Z,4.60
2023-04-30T10:26:49.620Z,4.60
2023-04-30T10:28:21.892Z,6.03
2023-04-30T10:29:54.936Z,5.67
2023-04-30T10:31:27.921Z,5.63
2023-04-30T10:33:13.595Z,9.53
2023-04-30T10:35:02.001Z,4.90
2023-04-30T10:36:59.006Z,6.70
2023-04-30T10:38:32.404Z,5.03
2023-04-30T10:40:05.099Z,4.30
2023-04-30T10:41:36.972Z,5.50
2023-04-30T10:43:11.417Z,5.60
2023-04-30T10:44:43.302Z,3.80
2023-04-30T10:46:24.432Z,4.87
2023-04-30T10:47:56.605Z,6.90
2023-04-30T10:49:28.797Z,4.60
2023-04-30T10:51:00.954Z,5.13
2023-04-30T10:52:32.612Z,6.10
2023-04-30T10:54:04.323Z,5.37
2023-04-30T10:55:51.017Z,7.47
2023-04-30T10:57:22.810Z,8.67
2023-04-30T10:58:54.424Z,4.10
2023-04-30T11:00:28.768Z,4.53
2023-04-30T11:02:02.045Z,4.17
2023-04-30T11:03:36.227Z,5.30
2023-04-30T11:05:08.969Z,7.03
2023-04-30T11:06:52.651Z,4.50
2023-04-30T11:08:43.513Z,4.93
2023-04-30T11:10:16.061Z,6.40
2023-04-30T11:11:50.184Z,5.17
2023-04-30T11:13:21.911Z,5.13
2023-04-30T11:15:02.350Z,8.00
2023-04-30T11:16:36.946Z,4.63
2023-04-30T11:18:09.651Z,4.93
2023-04-30T11:19:49.325Z,5.20
2023-04-30T11:21:21.248Z,6.23
2023-04-30T11:23:39.309Z,6.20
2023-04-30T11:25:13.184Z,6.23
2023-04-30T11:27:12.850Z,5.83
2023-04-30T11:28:52.242Z,4.20
2023-04-30T11:30:24.470Z,4.20
2023-04-30T11:31:56.672Z,6.90
2023-04-30T11:33:30.749Z,5.73
2023-04-30T11:35:04.199Z,4.33
2023-04-30T11:36:36.577Z,6.70
2023-04-30T11:38:09.377Z,6.27
2023-04-30T11:39:42.428Z,6.40
2023-04-30T11:41:14.506Z,5.87
2023-04-30T11:42:48.222Z,2.87
2023-04-30T11:44:28.845Z,3.33
2023-04-30T11:46:12.180Z,3.60
2023-04-30T11:47:48.243Z,4.07
2023-04-30T11:49:23.646Z,2.77
2023-04-30T11:50:55.297Z,4.83
2023-04-30T11:52:27.218Z,3.20
2023-04-30T11:53:59.558Z,3.93
2023-04-30T11:55:31.308Z,2.50
2023-04-30T11:57:04.337Z,2.33
2023-04-30T11:58:40.182Z,7.53
2023-04-30T12:00:14.582Z,6.47
2023-04-30T12:01:46.300Z,4.90
2023-04-30T12:03:18.290Z,3.50
2023-04-30T12:04:50.331Z,5.23
2023-04-30T12:06:24.405Z,7.47
2023-04-30T12:07:58.936Z,5.90
2023-04-30T12:09:30.744Z,5.13
2023-04-30T12:11:02.433Z,5.63
2023-04-30T12:12:37.686Z,6.87
2023-04-30T12:14:10.967Z,4.20
2023-04-30T12:15:42.701Z,3.80
2023-04-30T12:17:31.525Z,4.13
2023-04-30T12:19:03.808Z,3.73
2023-04-30T12:20:36.171Z,11.63
2023-04-30T12:22:07.840Z,3.93
2023-04-30T12:23:39.632Z,6.40
2023-04-30T12:25:16.399Z,4.80
2023-04-30T12:26:48.154Z,5.17
2023-04-30T12:28:19.964Z,5.93
2023-04-30T12:29:54.799Z,8.93
2023-04-30T12:31:27.402Z,5.23
2023-04-30T12:33:00.124Z,7.77
2023-04-30T12:34:33.918Z,11.83
2023-04-30T12:36:10.772Z,6.70
2023-04-30T12:37:47.702Z,4.60
2023-04-30T12:39:19.423Z,4.33
2023-04-30T12:40:51.166Z,4.20
2023-04-30T12:42:22.832Z,3.90
2023-04-30T12:44:33.706Z,4.67
2023-04-30T12:46:05.622Z,4.43
2023-04-30T12:47:43.594Z,4.77
2023-04-30T12:49:28.771Z,5.33
2023-04-30T12:51:02.265Z,3.13
2023-04-30T12:52:34.804Z,4.57
2023-04-30T12:54:06.984Z,3.40
2023-04-30T12:55:39.633Z,2.87
2023-04-30T12:57:12.926Z,4.23
2023-04-30T12:58:47.250Z,6.47
2023-04-30T13:00:18.938Z,2.37
2023-04-30T13:01:50.593Z,2.80
2023-04-30T13:03:25.789Z,5.03
2023-04-30T13:04:58.668Z,2.63
2023-04-30T13:06:33.398Z,3.00
2023-04-30T13:08:06.633Z,4.00
2023-04-30T13:09:39.811Z,3.27
2023-04-30T13:11:14.541Z,2.70
2023-04-30T13:12:47.236Z,2.70
2023-04-30T13:14:22.315Z,2.50
2023-04-30T13:15:54.838Z,4.03
2023-04-30T13:17:26.915Z,3.60
2023-04-30T13:18:59.438Z,3.73
2023-04-30T13:20:33.878Z,4.93
2023-04-30T13:22:07.959Z,3.40
2023-04-30T13:23:51.110Z,3.20
2023-04-30T13:25:25.674Z,2.80
2023-04-30T13:26:59.128Z,3.93
2023-04-30T13:28:30.845Z,3.07
2023-04-30T13:30:03.973Z,3.10
2023-04-30T13:31:36.256Z,6.07
2023-04-30T13:33:08.112Z,4.10
2023-04-30T13:34:42.718Z,3.30
2023-04-30T13:36:15.478Z,2.77
2023-04-30T13:37:52.486Z,3.00
2023-04-30T13:39:24.255Z,3.27
2023-04-30T13:40:55.926Z,2.80
2023-04-30T13:42:27.624Z,2.87
2023-04-30T13:44:00.201Z,10.47
2023-04-30T13:45:31.937Z,3.27
2023-04-30T13:47:03.777Z,2.70
2023-04-30T13:48:35.547Z,2.63
2023-04-30T13:50:08.704Z,2.70
2023-04-30T13:51:40.663Z,2.83
2023-04-30T13:53:12.387Z,3.10
2023-04-30T13:54:44.156Z,3.33
2023-04-30T13:56:15.979Z,2.50
2023-04-30T13:57:47.663Z,3.93
2023-04-30T13:59:19.483Z,3.53
2023-04-30T14:00:51.385Z,2.83
2023-04-30T14:02:23.217Z,2.33
2023-04-30T14:03:57.402Z,2.40
2023-04-30T14:05:29.466Z,2.53
2023-04-30T14:07:01.847Z,3.97
2023-04-30T14:08:33.739Z,2.20
2023-04-30T14:10:06.167Z,3.33
2023-04-30T14:11:37.883Z,2.17
2023-04-30T14:13:09.578Z,2.70
2023-04-30T14:14:41.787Z,2.20
2023-04-30T14:16:13.570Z,2.27
2023-04-30T14:17:45.253Z,2.30
2023-04-30T14:19:17.500Z,5.80
2023-04-30T14:20:49.472Z,2.70
2023-04-30T14:22:21.663Z,2.10
2023-04-30T14:23:53.325Z,1.90
2023-04-30T14:25:25.078Z,2.27
2023-04-30T14:26:56.874Z,2.20
2023-04-30T14:28:28.522Z,2.90
2023-04-30T14:30:00.243Z,3.53
2023-04-30T14:31:31.895Z,2.70
2023-04-30T14:33:03.699Z,4.30
2023-04-30T14:34:35.417Z,2.40
2023-04-30T14:36:08.827Z,4.57
2023-04-30T14:37:40.851Z,4.70
2023-04-30T14:39:12.790Z,6.00
2023-04-30T14:40:44.838Z,4.50
2023-04-30T14:42:16.584Z,6.90
2023-04-30T14:43:48.286Z,4.00
2023-04-30T14:45:20.046Z,2.20
2023-04-30T14:46:52.107Z,1.73
2023-04-30T14:48:23.781Z,2.70
2023-04-30T14:49:55.802Z,3.03
2023-04-30T14:51:28.658Z,2.10
2023-04-30T14:53:00.290Z,4.80
2023-04-30T14:54:32.144Z,2.20
2023-04-30T14:56:04.065Z,3.23
2023-04-30T14:57:36.329Z,2.27
2023-04-30T14:59:08.036Z,2.23
2023-04-30T15:00:39.706Z,2.07
2023-04-30T15:02:11.596Z,8.27
2023-04-30T15:03:43.729Z,2.80
2023-04-30T15:05:15.777Z,2.37
2023-04-30T15:06:47.760Z,2.90
2023-04-30T15:08:19.542Z,1.90
2023-04-30T15:09:52.517Z,4.73
2023-04-30T15:11:24.273Z,2.60
2023-04-30T15:12:56.021Z,2.50
2023-04-30T15:14:27.665Z,2.53
2023-04-30T15:15:59.534Z,2.70
2023-04-30T15:17:34.703Z,2.93
2023-04-30T15:19:06.635Z,2.90
2023-04-30T15:20:38.324Z,15.50
2023-04-30T15:22:10.029Z,21.00
2023-04-30T15:23:41.722Z,19.43
2023-04-30T15:25:13.860Z,9.97
2023-04-30T15:26:45.682Z,9.43
2023-04-30T15:28:17.580Z,6.70
2023-04-30T15:29:49.255Z,5.43
2023-04-30T15:31:21.031Z,5.07
2023-04-30T15:32:52.848Z,4.37
2023-04-30T15:34:24.526Z,5.97
2023-04-30T15:35:56.372Z,3.23
2023-04-30T15:37:28.073Z,5.70
2023-04-30T15:38:59.830Z,3.13
2023-04-30T15:40:31.574Z,7.93
2023-04-30T15:42:03.429Z,3.27
2023-04-30T15:43:35.117Z,7.10
2023-04-30T15:45:07.604Z,3.80
2023-04-30T15:46:39.312Z,3.30
2023-04-30T15:48:10.986Z,4.20
2023-04-30T15:49:43.328Z,2.33
2023-04-30T15:51:15.436Z,2.57
2023-04-30T15:52:47.321Z,5.03
2023-04-30T15:54:19.135Z,5.63
2023-04-30T15:55:50.932Z,3.20
2023-04-30T15:57:22.860Z,1.97
2023-04-30T15:58:54.991Z,2.90
2023-04-30T16:00:27.116Z,3.13
2023-04-30T16:01:59.381Z,2.17
2023-04-30T16:03:31.554Z,1.50
2023-04-30T16:05:03.860Z,2.30
2023-04-30T16:06:35.709Z,1.77
2023-04-30T16:08:09.826Z,2.93
2023-04-30T16:09:45.494Z,1.77
2023-04-30T16:11:17.166Z,1.90
2023-04-30T16:12:48.874Z,2.97
2023-04-30T16:14:20.662Z,9.80
2023-04-30T16:15:52.858Z,2.10
2023-04-30T16:17:24.701Z,3.47
2023-04-30T16:18:56.409Z,5.37
2023-04-30T16:20:28.526Z,1.80
2023-04-30T16:22:00.646Z,1.93
2023-04-30T16:23:32.350Z,1.67
2023-04-30T16:25:04.476Z,3.30
2023-04-30T16:26:36.526Z,1.80
2023-04-30T16:28:08.237Z,2.00
2023-04-30T16:29:39.916Z,2.00
2023-04-30T16:31:12.876Z,3.00
2023-04-30T16:32:44.707Z,4.27
2023-04-30T16:34:16.462Z,1.70
2023-04-30T16:35:48.414Z,2.93
2023-04-30T16:37:20.086Z,2.30
2023-04-30T16:38:51.897Z,2.40
2023-04-30T16:40:23.648Z,1.97
2023-04-30T16:41:55.610Z,3.00
2023-04-30T16:43:27.268Z,2.23
2023-04-30T16:44:59.021Z,1.90
2023-04-30T16:46:30.728Z,3.23
2023-04-30T16:48:02.581Z,2.17
2023-04-30T16:49:34.414Z,4.23
2023-04-30T16:51:07.490Z,1.80
2023-04-30T16:52:39.208Z,2.17
2023-04-30T16:54:11.016Z,2.27
2023-04-30T16:55:43.481Z,3.47
2023-04-30T16:57:15.208Z,2.40
2023-04-30T16:58:46.903Z,1.70
2023-04-30T17:00:18.715Z,3.43
2023-04-30T17:01:51.227Z,3.20
2023-04-30T17:03:24.145Z,1.43
2023-04-30T17:04:57.140Z,5.23
2023-04-30T17:06:28.831Z,5.93
2023-04-30T17:08:00.497Z,6.47
2023-04-30T17:09:32.203Z,9.00
2023-04-30T17:11:03.931Z,4.40
2023-04-30T17:12:35.591Z,4.03
2023-04-30T17:14:07.212Z,6.00
2023-04-30T17:15:39.569Z,3.30
2023-04-30T17:17:11.234Z,4.90
2023-04-30T17:18:42.974Z,2.23
2023-04-30T17:20:14.676Z,2.83
2023-04-30T17:21:46.397Z,3.70
2023-04-30T17:23:18.220Z,1.70
2023-04-30T17:24:50.116Z,3.80
2023-04-30T17:26:23.705Z,3.20
2023-04-30T17:27:55.940Z,3.97
2023-04-30T17:29:27.566Z,2.43
2023-04-30T17:31:03.669Z,5.93
2023-04-30T17:32:35.384Z,4.37
2023-04-30T17:34:07.201Z,3.43
2023-04-30T17:37:25.645Z,2.73
2023-04-30T17:38:57.410Z,3.93
2023-04-30T17:40:29.500Z,4.73
2023-04-30T17:42:01.428Z,3.03
2023-04-30T17:43:33.154Z,2.97
2023-04-30T17:45:06.119Z,3.27
2023-04-30T17:46:41.081Z,2.03
2023-04-30T17:48:12.872Z,3.40
2023-04-30T17:49:44.794Z,3.43
2023-04-30T17:51:16.562Z,4.00
2023-04-30T17:52:48.443Z,5.90
2023-04-30T17:54:20.808Z,5.87
2023-04-30T17:55:52.554Z,1.73
2023-04-30T17:57:25.115Z,3.53
2023-04-30T17:58:57.310Z,2.60
2023-04-30T18:00:29.032Z,3.20
2023-04-30T18:02:00.787Z,3.07
2023-04-30T18:03:32.710Z,2.13
2023-04-30T18:05:04.663Z,2.90
2023-04-30T18:06:36.409Z,1.97
2023-04-30T18:08:08.463Z,3.50
2023-04-30T18:09:40.248Z,2.97
2023-04-30T18:11:12.027Z,2.50
2023-04-30T18:12:43.759Z,1.80
2023-04-30T18:14:15.518Z,2.70
2023-04-30T18:15:47.648Z,4.30
2023-04-30T18:17:19.277Z,1.40
2023-04-30T18:18:51.268Z,2.20
2023-04-30T18:20:22.975Z,2.77
2023-04-30T18:21:56.577Z,5.13
2023-04-30T18:23:28.583Z,2.90
2023-04-30T18:25:00.427Z,3.20
2023-04-30T18:26:32.114Z,1.40
2023-04-30T18:28:03.853Z,1.40
2023-04-30T18:29:35.608Z,2.40
2023-04-30T18:31:07.233Z,2.50
2023-04-30T18:32:39.018Z,2.40
2023-04-30T18:34:10.683Z,2.83
2023-04-30T18:35:42.336Z,4.50
2023-04-30T18:37:14.019Z,2.17
2023-04-30T18:38:45.779Z,5.13
2023-04-30T18:40:17.547Z,2.30
2023-04-30T18:41:49.471Z,3.57
2023-04-30T18:43:21.553Z,2.13
2023-04-30T18:44:53.264Z,3.27
2023-04-30T18:46:25.247Z,2.70
2023-04-30T18:47:57.158Z,2.87
2023-04-30T18:49:28.887Z,3.73
2023-04-30T18:51:00.880Z,3.83
2023-04-30T18:52:32.519Z,7.10
2023-04-30T18:54:04.189Z,2.60
2023-04-30T18:55:35.840Z,2.63
2023-04-30T18:57:10.762Z,3.80
2023-04-30T18:58:45.470Z,4.73
2023-04-30T19:00:17.303Z,2.90
2023-04-30T19:01:52.078Z,2.13
2023-04-30T19:03:24.769Z,4.00
2023-04-30T19:04:56.637Z,1.83
2023-04-30T19:06:28.386Z,5.00
2023-04-30T19:08:00.195Z,5.13
2023-04-30T19:09:38.533Z,2.20
2023-04-30T19:11:10.426Z,1.90
2023-04-30T19:12:43.783Z,2.07
2023-04-30T19:14:15.387Z,6.03
2023-04-30T19:15:48.705Z,2.43
2023-04-30T19:17:21.858Z,2.50
2023-04-30T19:18:53.636Z,2.20
2023-04-30T19:20:25.283Z,5.97
2023-04-30T19:21:56.959Z,3.53
2023-04-30T19:23:32.331Z,1.97
2023-04-30T19:25:04.668Z,3.10
2023-04-30T19:26:37.304Z,1.90
2023-04-30T19:28:09.933Z,2.00
2023-04-30T19:29:41.597Z,2.90
2023-04-30T19:31:13.450Z,2.10
2023-04-30T19:32:45.212Z,2.00
2023-04-30T19:34:17.092Z,3.37
2023-04-30T19:35:55.624Z,2.27
2023-04-30T19:37:27.293Z,1.70
2023-04-30T19:38:58.982Z,3.63
2023-04-30T19:40:30.635Z,2.40
2023-04-30T19:42:02.258Z,3.67
2023-04-30T19:43:33.937Z,1.60
2023-04-30T19:45:07.702Z,1.73
2023-04-30T19:46:39.481Z,1.83
2023-04-30T19:48:11.442Z,5.17
2023-04-30T19:49:44.466Z,1.60
2023-04-30T19:51:16.468Z,1.50
2023-04-30T19:52:48.116Z,3.07
2023-04-30T19:54:19.737Z,2.00
2023-04-30T19:55:52.820Z,2.43
2023-04-30T19:57:24.601Z,5.10
2023-04-30T19:58:56.716Z,3.17
2023-04-30T20:00:29.128Z,2.37
2023-04-30T20:02:00.976Z,2.37
2023-04-30T20:03:34.122Z,2.90
2023-04-30T20:05:07.354Z,2.40
2023-04-30T20:06:39.196Z,2.83
2023-04-30T20:08:10.981Z,1.80
2023-04-30T20:09:42.613Z,3.70
2023-04-30T20:11:14.452Z,2.00
2023-04-30T20:12:46.139Z,1.67
2023-04-30T20:14:18.475Z,2.23
2023-04-30T20:15:50.357Z,2.13
2023-04-30T20:17:22.023Z,2.23
2023-04-30T20:18:53.756Z,2.13
2023-04-30T20:20:25.450Z,2.10
2023-04-30T20:21:57.124Z,2.47
2023-04-30T20:23:28.750Z,3.43
2023-04-30T20:25:02.399Z,1.80
2023-04-30T20:26:34.400Z,3.00